createdAt,value
2023-05-10T00:01:53.473Z,11.854553
2023-05-10T00:05:18.603Z,11.784058
2023-05-10T00:08:43.794Z,11.703491
2023-05-10T00:12:08.947Z,11.673279
2023-05-10T00:15:34.077Z,11.612854
2023-05-10T00:18:59.277Z,11.643066
2023-05-10T00:22:24.361Z,11.673279
2023-05-10T00:25:49.486Z,11.753845
2023-05-10T00:29:14.637Z,11.794128
2023-05-10T00:32:39.780Z,11.753845
2023-05-10T00:36:04.971Z,11.69342
2023-05-10T00:39:30.124Z,11.612854
2023-05-10T00:42:55.248Z,11.602783
2023-05-10T00:46:20.425Z,11.643066
2023-05-10T00:49:45.516Z,11.582642
2023-05-10T00:53:10.663Z,11.542358
2023-05-10T00:56:35.787Z,11.522217
2023-05-10T01:00:00.961Z,11.492004
2023-05-10T01:03:26.138Z,11.512146
2023-05-10T01:06:51.237Z,11.492004
2023-05-10T01:10:16.610Z,11.461792
2023-05-10T01:13:41.514Z,11.552429
2023-05-10T01:17:06.631Z,11.582642
2023-05-10T01:20:31.804Z,11.653137
2023-05-10T01:23:56.910Z,11.643066
2023-05-10T01:27:22.094Z,11.643066
2023-05-10T01:30:47.218Z,11.582642
2023-05-10T01:34:12.366Z,11.612854
2023-05-10T01:37:37.525Z,11.542358
2023-05-10T01:41:02.665Z,11.522217
2023-05-10T01:44:27.931Z,11.492004
2023-05-10T01:47:53.046Z,11.582642
2023-05-10T01:51:18.172Z,11.612854
2023-05-10T01:54:43.331Z,11.69342
2023-05-10T01:58:08.487Z,11.723633
2023-05-10T02:01:33.623Z,11.69342
2023-05-10T02:04:58.795Z,11.643066
2023-05-10T02:08:23.981Z,11.723633
2023-05-10T02:11:49.170Z,11.723633
2023-05-10T02:15:14.319Z,11.653137
2023-05-10T02:18:39.498Z,11.572571
2023-05-10T02:22:04.632Z,11.612854
2023-05-10T02:25:29.771Z,11.612854
2023-05-10T02:28:54.924Z,11.612854
2023-05-10T02:32:20.065Z,11.612854
2023-05-10T02:35:45.197Z,11.703491
2023-05-10T02:39:10.309Z,11.703491
2023-05-10T02:42:35.459Z,11.753845
2023-05-10T02:46:00.670Z,11.69342
2023-05-10T02:49:25.836Z,11.69342
2023-05-10T02:52:50.997Z,11.653137
2023-05-10T02:56:16.213Z,11.643066
2023-05-10T02:59:41.324Z,11.612854
2023-05-10T03:03:06.505Z,11.572571
2023-05-10T03:06:31.638Z,11.602783
2023-05-10T03:09:56.864Z,11.612854
2023-05-10T03:13:21.994Z,11.572571
2023-05-10T03:16:47.144Z,11.552429
2023-05-10T03:20:12.302Z,11.522217
2023-05-10T03:23:37.669Z,11.552429
2023-05-10T03:27:02.892Z,11.44165
2023-05-10T03:30:28.049Z,11.512146
2023-05-10T03:33:53.305Z,11.461792
2023-05-10T03:37:18.488Z,11.461792
2023-05-10T03:40:43.691Z,11.461792
2023-05-10T03:44:08.926Z,11.542358
2023-05-10T03:47:34.141Z,11.572571
2023-05-10T03:50:59.318Z,11.602783
2023-05-10T03:54:24.455Z,11.622925
2023-05-10T03:57:49.600Z,11.673279
2023-05-10T04:01:14.734Z,11.703491
2023-05-10T04:04:39.851Z,11.753845
2023-05-10T04:08:04.984Z,11.784058
2023-05-10T04:11:30.131Z,11.733704
2023-05-10T04:14:55.262Z,11.582642
2023-05-10T04:18:20.427Z,11.43158
2023-05-10T04:21:45.510Z,11.290588
2023-05-10T04:25:10.657Z,11.220093
2023-05-10T04:28:35.786Z,11.18988
2023-05-10T04:32:00.913Z,11.220093
2023-05-10T04:35:26.072Z,11.280518
2023-05-10T04:38:51.190Z,11.391296
2023-05-10T04:42:16.315Z,11.492004
2023-05-10T04:45:41.452Z,11.582642
2023-05-10T04:49:06.605Z,11.622925
2023-05-10T04:52:31.804Z,11.69342
2023-05-10T04:55:56.927Z,11.794128
2023-05-10T04:59:22.059Z,11.854553
2023-05-10T05:02:47.215Z,11.794128
2023-05-10T05:06:12.304Z,11.753845
2023-05-10T05:09:37.456Z,11.763916
2023-05-10T05:13:02.620Z,11.854553
2023-05-10T05:16:27.776Z,11.864624
2023-05-10T05:19:52.870Z,11.884766
2023-05-10T05:23:17.988Z,11.884766
2023-05-10T05:26:43.396Z,11.904907
2023-05-10T05:30:08.467Z,11.904907
2023-05-10T05:33:33.584Z,11.93512
2023-05-10T05:36:58.726Z,11.864624
2023-05-10T05:40:23.885Z,11.904907
2023-05-10T05:43:49.036Z,11.854553
2023-05-10T05:47:14.156Z,11.884766
2023-05-10T05:50:39.272Z,11.763916
2023-05-10T05:54:04.410Z,11.733704
2023-05-10T05:57:29.579Z,11.703491
2023-05-10T06:00:54.706Z,11.673279
2023-05-10T06:04:19.869Z,11.643066
2023-05-10T06:07:44.940Z,11.572571
2023-05-10T06:11:10.077Z,11.552429
2023-05-10T06:14:35.210Z,11.542358
2023-05-10T06:18:00.453Z,11.522217
2023-05-10T06:21:25.456Z,11.512146
2023-05-10T06:24:50.595Z,11.44165
2023-05-10T06:28:15.715Z,11.492004
2023-05-10T06:31:40.887Z,11.512146
2023-05-10T06:35:05.984Z,11.572571
2023-05-10T06:38:31.125Z,11.522217
2023-05-10T06:41:56.264Z,11.582642
2023-05-10T06:45:21.401Z,11.582642
2023-05-10T06:48:46.510Z,11.612854
2023-05-10T06:52:11.727Z,11.643066
2023-05-10T06:55:36.803Z,11.653137
2023-05-10T06:59:01.969Z,11.622925
2023-05-10T07:02:27.132Z,11.44165
2023-05-10T07:05:52.245Z,11.401367
2023-05-10T07:09:17.414Z,11.371155
2023-05-10T07:12:42.642Z,11.139526
2023-05-10T07:16:07.750Z,11.109314
2023-05-10T07:19:32.853Z,11.220093
2023-05-10T07:22:58.017Z,11.371155
2023-05-10T07:26:23.344Z,11.461792
2023-05-10T07:29:48.352Z,11.582642
2023-05-10T07:33:13.578Z,11.673279
2023-05-10T07:36:38.621Z,11.824341
2023-05-10T07:40:03.777Z,11.824341
2023-05-10T07:43:28.939Z,11.864624
2023-05-10T07:46:54.051Z,11.914978
2023-05-10T07:50:19.210Z,11.914978
2023-05-10T07:53:44.343Z,11.93512
2023-05-10T07:57:09.489Z,12.005615
2023-05-10T08:00:34.644Z,12.035828
2023-05-10T08:03:59.832Z,12.045898
2023-05-10T08:07:24.886Z,12.116394
2023-05-10T08:10:50.035Z,12.126465
2023-05-10T08:14:15.189Z,12.156677
2023-05-10T08:17:40.420Z,12.267456
2023-05-10T08:21:05.475Z,12.307739
2023-05-10T08:24:31.509Z,12.378235
2023-05-10T08:27:56.648Z,12.458801
2023-05-10T08:31:21.818Z,12.559509
2023-05-10T08:34:47.039Z,12.619934
2023-05-10T08:38:12.166Z,12.7005
2023-05-10T08:41:37.334Z,12.720642
2023-05-10T08:45:02.491Z,12.791138
2023-05-10T08:48:27.653Z,12.871704
2023-05-10T08:51:52.861Z,12.831421
2023-05-10T08:55:18.146Z,12.871704
2023-05-10T08:58:43.189Z,12.922058
2023-05-10T09:02:08.365Z,12.952271
2023-05-10T09:05:33.541Z,13.052979
2023-05-10T09:08:58.754Z,13.143616
2023-05-10T09:12:23.918Z,13.284607
2023-05-10T09:15:49.096Z,13.415527
2023-05-10T09:19:14.339Z,13.405457
2023-05-10T09:22:39.488Z,13.435669
2023-05-10T09:26:04.755Z,13.536377
2023-05-10T09:29:29.941Z,13.616943
2023-05-10T09:32:55.227Z,13.586731
2023-05-10T09:36:20.442Z,13.566589
2023-05-10T09:39:45.615Z,13.586731
2023-05-10T09:43:10.837Z,13.566589
2023-05-10T09:46:36.056Z,13.616943
2023-05-10T09:50:01.238Z,13.707581
2023-05-10T09:53:26.428Z,13.778076
2023-05-10T09:56:51.639Z,13.848572
2023-05-10T10:00:16.959Z,13.94928
2023-05-10T10:03:42.162Z,14.039917
2023-05-10T10:07:07.405Z,14.140625
2023-05-10T10:10:32.710Z,14.150696
2023-05-10T10:13:58.001Z,14.271545
2023-05-10T10:17:24.220Z,14.422607
2023-05-10T10:20:49.389Z,14.462891
2023-05-10T10:24:14.667Z,14.503174
2023-05-10T10:27:39.905Z,14.624023
2023-05-10T10:31:05.198Z,14.775085
2023-05-10T10:34:30.535Z,14.83551
2023-05-10T10:37:55.830Z,14.936218
2023-05-10T10:41:46.002Z,15.067139
2023-05-10T10:45:11.223Z,15.127563
2023-05-10T10:48:36.404Z,15.268555
2023-05-10T10:52:01.851Z,15.288696
2023-05-10T10:55:26.987Z,15.228271
2023-05-10T10:58:52.170Z,15.127563
2023-05-10T11:02:17.313Z,15.016785
2023-05-10T11:05:42.480Z,14.906006
2023-05-10T11:09:07.674Z,14.795227
2023-05-10T11:12:32.859Z,14.724731
2023-05-10T11:15:58.057Z,14.58374
2023-05-10T11:19:23.238Z,14.372253
2023-05-10T11:22:48.396Z,14.291687
2023-05-10T11:26:13.582Z,14.372253
2023-05-10T11:29:38.734Z,14.503174
2023-05-10T11:33:03.943Z,14.58374
2023-05-10T11:36:29.107Z,14.654236
2023-05-10T11:39:54.254Z,14.775085
2023-05-10T11:43:19.491Z,14.946289
2023-05-10T11:46:44.648Z,15.057068
2023-05-10T11:50:09.720Z,15.187988
2023-05-10T11:53:34.880Z,15.278625
2023-05-10T11:57:00.051Z,15.409546
2023-05-10T12:00:25.205Z,15.469971
2023-05-10T12:03:50.425Z,15.540466
2023-05-10T12:07:15.484Z,15.651245
2023-05-10T12:10:40.598Z,15.741882
2023-05-10T12:14:05.735Z,15.762024
2023-05-10T12:17:30.945Z,15.822449
2023-05-10T12:20:56.050Z,15.862732
2023-05-10T12:24:21.218Z,15.892944
2023-05-10T12:27:46.421Z,15.923157
2023-05-10T12:31:11.660Z,15.943298
2023-05-10T12:34:36.807Z,16.003723
2023-05-10T12:38:02.117Z,16.013794
2023-05-10T12:41:27.338Z,16.023865
2023-05-10T12:44:52.616Z,16.054077
2023-05-10T12:48:17.783Z,16.074219
2023-05-10T12:51:42.979Z,16.09436
2023-05-10T12:55:08.134Z,16.09436
2023-05-10T12:58:35.821Z,16.114502
2023-05-10T13:01:58.438Z,16.044006
2023-05-10T13:05:23.622Z,15.943298
2023-05-10T13:08:48.795Z,15.84259
2023-05-10T13:12:13.987Z,15.762024
2023-05-10T13:15:39.208Z,15.570679
2023-05-10T13:19:04.383Z,15.469971
2023-05-10T13:22:39.550Z,15.349121
2023-05-10T13:25:54.688Z,15.359192
2023-05-10T13:29:19.890Z,15.33905
2023-05-10T13:32:45.034Z,15.318909
2023-05-10T13:36:10.220Z,15.248413
2023-05-10T13:39:35.407Z,15.067139
2023-05-10T13:43:00.629Z,14.976501
2023-05-10T13:46:25.832Z,14.946289
2023-05-10T13:49:50.941Z,14.805298
2023-05-10T13:53:16.114Z,14.734802
2023-05-10T13:56:41.305Z,14.624023
2023-05-10T14:00:06.581Z,14.573669
2023-05-10T14:03:31.750Z,14.603882
2023-05-10T14:06:56.898Z,14.684448
2023-05-10T14:10:22.085Z,14.684448
2023-05-10T14:13:47.295Z,14.724731
2023-05-10T14:17:12.673Z,14.734802
2023-05-10T14:20:37.767Z,14.754944
2023-05-10T14:24:02.923Z,14.795227
2023-05-10T14:27:28.051Z,14.70459
2023-05-10T14:30:53.200Z,14.734802
2023-05-10T14:34:18.434Z,14.684448
2023-05-10T14:37:43.618Z,14.70459
2023-05-10T14:41:10.612Z,14.624023
2023-05-10T14:44:33.949Z,14.58374
2023-05-10T14:47:59.230Z,14.462891
2023-05-10T14:51:24.417Z,14.462891
2023-05-10T14:54:49.521Z,14.553528
2023-05-10T14:58:14.731Z,14.58374
2023-05-10T15:01:39.921Z,14.603882
2023-05-10T15:05:05.132Z,14.573669
2023-05-10T15:08:30.331Z,14.58374
2023-05-10T15:45:45.363Z,14.372253
2023-05-10T15:49:10.538Z,14.281616
2023-05-10T15:52:35.664Z,14.271545
2023-05-10T15:56:00.814Z,14.241333
2023-05-10T15:59:25.987Z,14.100342
2023-05-10T16:02:51.378Z,14.060059
2023-05-10T16:06:16.447Z,14.070129
2023-05-10T16:09:41.616Z,14.090271
2023-05-10T16:13:06.784Z,14.100342
2023-05-10T16:16:31.986Z,14.090271
2023-05-10T16:19:57.135Z,14.029846
2023-05-10T16:23:22.348Z,14.019775
2023-05-10T16:26:47.542Z,14.039917
2023-05-10T16:30:12.780Z,13.868713
2023-05-10T16:33:37.860Z,13.768005
2023-05-10T16:37:03.122Z,13.69751
2023-05-10T16:40:28.263Z,13.627014
2023-05-10T16:43:53.445Z,13.586731
2023-05-10T16:47:18.622Z,13.596802
2023-05-10T16:50:43.790Z,13.637085
2023-05-10T16:54:09.026Z,13.707581
2023-05-10T16:57:34.138Z,13.788147
2023-05-10T17:00:59.311Z,13.818359
2023-05-10T17:04:24.465Z,13.778076
2023-05-10T17:07:49.655Z,13.778076
2023-05-10T17:11:14.913Z,13.768005
2023-05-10T17:14:40.132Z,13.747864
2023-05-10T17:18:05.342Z,13.707581
2023-05-10T17:21:30.477Z,13.566589
2023-05-10T17:24:55.624Z,13.546448
2023-05-10T17:28:20.828Z,13.616943
2023-05-10T17:31:46.245Z,13.516235
2023-05-10T17:35:11.388Z,13.475952
2023-05-10T17:38:36.572Z,13.486023
2023-05-10T17:42:01.759Z,13.475952
2023-05-10T17:45:27.015Z,13.435669
2023-05-10T17:48:52.106Z,13.405457
2023-05-10T17:52:17.335Z,13.375244
2023-05-10T17:55:42.521Z,13.435669
2023-05-10T17:59:07.709Z,13.385315
2023-05-10T18:02:32.885Z,13.435669
2023-05-10T18:05:58.043Z,13.455811
2023-05-10T18:09:23.196Z,13.435669
2023-05-10T18:12:48.393Z,13.385315
2023-05-10T18:16:13.642Z,13.405457
2023-05-10T18:19:38.725Z,13.355103
2023-05-10T18:23:03.863Z,13.415527
2023-05-10T18:26:29.006Z,13.415527
2023-05-10T18:29:54.260Z,13.435669
2023-05-10T18:33:19.361Z,13.435669
2023-05-10T18:36:44.542Z,13.44574
2023-05-10T18:40:09.666Z,13.415527
2023-05-10T18:43:34.793Z,13.455811
2023-05-10T18:46:59.928Z,13.44574
2023-05-10T18:50:25.078Z,13.405457
2023-05-10T18:53:50.237Z,13.415527
2023-05-10T18:57:15.363Z,13.435669
2023-05-10T19:00:40.542Z,13.375244
2023-05-10T19:04:05.679Z,13.355103
2023-05-10T19:07:30.801Z,13.32489
2023-05-10T19:10:55.980Z,13.284607
2023-05-10T19:14:21.115Z,13.254395
2023-05-10T19:17:49.495Z,13.284607
2023-05-10T19:21:17.155Z,13.264465
2023-05-10T19:24:44.906Z,13.254395
2023-05-10T19:28:11.318Z,13.204041
2023-05-10T19:31:36.688Z,13.19397
2023-05-10T19:35:01.803Z,13.123474
2023-05-10T19:38:27.556Z,13.143616
2023-05-10T19:41:53.285Z,13.153687
2023-05-10T19:45:18.636Z,13.153687
2023-05-10T19:48:43.611Z,13.103333
2023-05-10T19:52:08.759Z,13.032837
2023-05-10T19:55:33.911Z,13.012695
2023-05-10T19:58:59.114Z,13.052979
2023-05-10T20:02:24.320Z,13.07312
2023-05-10T20:05:49.407Z,13.083191
2023-05-10T20:09:14.567Z,13.083191
2023-05-10T20:12:39.726Z,13.103333
2023-05-10T20:16:04.886Z,13.083191
2023-05-10T20:19:30.093Z,13.083191
2023-05-10T20:22:55.247Z,13.07312
2023-05-10T20:26:20.405Z,13.042908
2023-05-10T20:29:45.531Z,13.032837
2023-05-10T20:33:10.708Z,13.012695
2023-05-10T20:36:35.864Z,13.012695
2023-05-10T20:40:00.994Z,13.032837
2023-05-10T20:43:26.157Z,13.032837
2023-05-10T20:46:51.312Z,13.042908
2023-05-10T20:50:16.644Z,13.042908
2023-05-10T20:53:41.615Z,13.07312
2023-05-10T20:57:06.726Z,13.052979
2023-05-10T21:00:31.826Z,13.032837
2023-05-10T21:03:56.980Z,12.962341
2023-05-10T21:07:22.141Z,12.932129
2023-05-10T21:10:47.330Z,12.922058
2023-05-10T21:14:12.434Z,12.891846
2023-05-10T21:17:37.626Z,12.851562
2023-05-10T21:21:02.738Z,12.861633
2023-05-10T21:24:27.909Z,12.831421
2023-05-10T21:27:53.120Z,12.770996
2023-05-10T21:31:18.323Z,12.791138
2023-05-10T21:34:43.382Z,12.750854
2023-05-10T21:38:08.532Z,12.740784
2023-05-10T21:41:33.703Z,12.720642
2023-05-10T21:44:58.860Z,12.670288
2023-05-10T21:48:23.993Z,12.589722
2023-05-10T21:51:49.164Z,12.468872
2023-05-10T21:55:14.316Z,12.388306
2023-05-10T21:58:39.480Z,12.337952
2023-05-10T22:02:04.683Z,12.31781
2023-05-10T22:05:29.773Z,12.378235
2023-05-10T22:08:54.920Z,12.348022
2023-05-10T22:12:20.076Z,12.31781
2023-05-10T22:15:45.235Z,12.31781
2023-05-10T22:19:10.430Z,12.337952
2023-05-10T22:22:35.542Z,12.337952
2023-05-10T22:26:00.707Z,12.388306
2023-05-10T22:29:25.860Z,12.408447
2023-05-10T22:32:51.054Z,12.378235
2023-05-10T22:36:16.198Z,12.378235
2023-05-10T22:39:41.327Z,12.307739
2023-05-10T22:43:06.495Z,12.307739
2023-05-10T22:46:31.702Z,12.287598
2023-05-10T22:49:56.829Z,12.267456
2023-05-10T22:53:21.972Z,12.277527
2023-05-10T22:56:47.121Z,12.277527
2023-05-10T23:00:12.263Z,12.287598
2023-05-10T23:03:37.392Z,12.307739
2023-05-10T23:07:02.528Z,12.277527
2023-05-10T23:10:27.715Z,12.307739
2023-05-10T23:13:52.817Z,12.267456
2023-05-10T23:17:17.983Z,12.267456
2023-05-10T23:20:43.177Z,12.227173
2023-05-10T23:24:08.303Z,12.207031
2023-05-10T23:27:33.489Z,12.156677
2023-05-10T23:30:58.596Z,12.156677
2023-05-10T23:34:23.734Z,12.136536
2023-05-10T23:37:48.844Z,12.136536
2023-05-10T23:41:14.006Z,12.086182
2023-05-10T23:44:39.160Z,12.086182
2023-05-10T23:48:04.341Z,12.06604
2023-05-10T23:51:29.437Z,12.096252
2023-05-10T23:54:54.597Z,12.086182
2023-05-10T23:58:19.807Z,12.096252
